createdAt,value
2019-02-16T00:00:27.208Z,24.20
2019-02-16T00:01:10.832Z,23.45
2019-02-16T00:01:44.360Z,25.17
2019-02-16T00:02:18.568Z,21.27
2019-02-16T00:02:52.605Z,23.52
2019-02-16T00:03:26.925Z,25.15
2019-02-16T00:04:00.474Z,25.43
2019-02-16T00:04:34.035Z,21.42
2019-02-16T00:05:08.041Z,22.80
2019-02-16T00:05:42.201Z,27.27
2019-02-16T00:06:15.701Z,24.18
2019-02-16T00:06:50.818Z,24.18
2019-02-16T00:07:24.413Z,22.48
2019-02-16T00:07:57.835Z,19.37
2019-02-16T00:08:33.275Z,22.42
2019-02-16T00:09:07.716Z,23.20
2019-02-16T00:09:41.224Z,21.57
2019-02-16T00:10:14.752Z,20.27
2019-02-16T00:10:51.417Z,24.72
2019-02-16T00:11:25.946Z,21.10
2019-02-16T00:12:00.217Z,23.75
2019-02-16T00:12:33.702Z,26.20
2019-02-16T00:13:07.213Z,22.87
2019-02-16T00:13:43.177Z,23.95
2019-02-16T00:14:16.731Z,21.62
2019-02-16T00:14:50.228Z,22.95
2019-02-16T00:15:24.763Z,23.50
2019-02-16T00:16:04.793Z,23.85
2019-02-16T00:16:40.120Z,24.18
2019-02-16T00:17:14.855Z,23.73
2019-02-16T00:17:49.260Z,21.45
2019-02-16T00:18:23.782Z,23.42
2019-02-16T00:18:58.589Z,17.65
2019-02-16T00:19:32.980Z,22.77
2019-02-16T00:20:09.113Z,21.10
2019-02-16T00:20:44.584Z,20.62
2019-02-16T00:21:18.109Z,20.92
2019-02-16T00:21:53.205Z,22.42
2019-02-16T00:22:27.404Z,21.87
2019-02-16T00:23:02.099Z,24.85
2019-02-16T00:23:36.910Z,22.75
2019-02-16T00:24:10.631Z,27.22
2019-02-16T00:24:45.652Z,23.20
2019-02-16T00:25:20.338Z,25.90
2019-02-16T00:25:56.714Z,21.97
2019-02-16T00:26:31.522Z,22.40
2019-02-16T00:27:05.796Z,20.90
2019-02-16T00:27:41.323Z,19.82
2019-02-16T00:28:17.819Z,23.45
2019-02-16T00:28:51.387Z,21.80
2019-02-16T00:29:28.781Z,20.15
2019-02-16T00:30:02.740Z,20.62
2019-02-16T00:30:38.203Z,23.45
2019-02-16T00:31:11.781Z,23.77
2019-02-16T00:31:48.158Z,21.90
2019-02-16T00:32:23.271Z,19.10
2019-02-16T00:32:56.766Z,19.50
2019-02-16T00:33:30.273Z,24.47
2019-02-16T00:34:05.200Z,19.85
2019-02-16T00:34:38.809Z,19.07
2019-02-16T00:35:12.922Z,23.70
2019-02-16T00:35:46.920Z,19.42
2019-02-16T00:36:20.395Z,18.15
2019-02-16T00:36:53.843Z,19.02
2019-02-16T00:37:28.223Z,18.57
2019-02-16T00:38:03.860Z,22.02
2019-02-16T00:38:37.635Z,20.25
2019-02-16T00:39:11.224Z,15.83
2019-02-16T00:39:45.021Z,21.07
2019-02-16T00:40:18.524Z,21.33
2019-02-16T00:40:52.781Z,23.80
2019-02-16T00:41:27.315Z,21.82
2019-02-16T00:42:02.590Z,19.35
2019-02-16T00:42:37.155Z,24.60
2019-02-16T00:43:10.746Z,24.15
2019-02-16T00:43:45.886Z,22.20
2019-02-16T00:44:20.366Z,21.20
2019-02-16T00:44:54.397Z,23.87
2019-02-16T00:45:27.964Z,19.82
2019-02-16T00:46:03.305Z,19.35
2019-02-16T00:46:38.475Z,20.95
2019-02-16T00:47:12.144Z,20.65
2019-02-16T00:47:45.862Z,23.07
2019-02-16T00:48:19.351Z,18.73
2019-02-16T00:48:52.951Z,21.15
2019-02-16T00:49:27.317Z,17.52
2019-02-16T00:50:00.948Z,23.50
2019-02-16T00:50:34.484Z,17.60
2019-02-16T00:51:13.720Z,24.23
2019-02-16T00:51:44.993Z,19.80
2019-02-16T00:52:19.804Z,18.07
2019-02-16T00:52:53.775Z,19.65
2019-02-16T00:53:30.492Z,15.95
2019-02-16T00:54:05.597Z,22.13
2019-02-16T00:54:40.596Z,19.57
2019-02-16T00:55:17.898Z,19.00
2019-02-16T00:55:54.128Z,18.82
2019-02-16T00:56:29.226Z,23.42
2019-02-16T00:57:05.706Z,19.12
2019-02-16T00:57:39.143Z,19.23
2019-02-16T00:58:12.711Z,17.98
2019-02-16T00:58:49.196Z,16.82
2019-02-16T00:59:25.162Z,21.30
2019-02-16T00:59:59.271Z,17.67
2019-02-16T01:00:33.811Z,17.75
2019-02-16T01:01:09.393Z,17.07
2019-02-16T01:01:44.429Z,18.40
2019-02-16T01:02:21.256Z,24.23
2019-02-16T01:02:54.743Z,19.02
2019-02-16T01:03:29.703Z,20.32
2019-02-16T01:04:05.357Z,17.05
2019-02-16T01:04:41.171Z,18.27
2019-02-16T01:05:18.139Z,15.05
2019-02-16T01:05:51.774Z,18.02
2019-02-16T01:06:25.309Z,17.87
2019-02-16T01:06:58.881Z,19.75
2019-02-16T01:07:34.574Z,16.85
2019-02-16T01:08:08.415Z,19.73
2019-02-16T01:08:41.906Z,16.95
2019-02-16T01:09:15.465Z,17.05
2019-02-16T01:09:49.084Z,18.27
2019-02-16T01:10:25.043Z,19.20
2019-02-16T01:11:00.120Z,22.75
2019-02-16T01:11:33.548Z,18.65
2019-02-16T01:12:09.172Z,17.98
2019-02-16T01:12:42.869Z,21.25
2019-02-16T01:13:19.104Z,19.92
2019-02-16T01:13:52.667Z,18.23
2019-02-16T01:14:27.484Z,15.72
2019-02-16T01:15:03.606Z,26.68
2019-02-16T01:15:39.967Z,21.12
2019-02-16T01:16:13.628Z,17.25
2019-02-16T01:16:48.602Z,17.37
2019-02-16T01:17:24.338Z,16.67
2019-02-16T01:17:58.249Z,18.23
2019-02-16T01:18:32.742Z,16.90
2019-02-16T01:19:07.756Z,18.02
2019-02-16T01:19:41.656Z,20.35
2019-02-16T01:20:16.141Z,19.57
2019-02-16T01:20:51.461Z,21.42
2019-02-16T01:21:25.669Z,18.77
2019-02-16T01:22:00.943Z,21.80
2019-02-16T01:22:35.493Z,19.50
2019-02-16T01:23:09.177Z,23.22
2019-02-16T01:23:44.777Z,19.37
2019-02-16T01:24:18.485Z,16.62
2019-02-16T01:24:52.007Z,18.00
2019-02-16T01:25:25.514Z,21.77
2019-02-16T01:25:59.016Z,24.65
2019-02-16T01:26:32.737Z,16.50
2019-02-16T01:27:06.217Z,22.22
2019-02-16T01:27:39.814Z,18.45
2019-02-16T01:28:14.184Z,19.37
2019-02-16T01:28:48.052Z,22.13
2019-02-16T01:29:21.778Z,23.67
2019-02-16T01:29:55.710Z,19.67
2019-02-16T01:30:30.311Z,16.97
2019-02-16T01:31:04.094Z,19.82
2019-02-16T01:31:37.681Z,21.48
2019-02-16T01:32:11.238Z,21.20
2019-02-16T01:32:53.702Z,18.55
2019-02-16T01:33:27.442Z,18.50
2019-02-16T01:34:01.670Z,21.37
2019-02-16T01:34:35.855Z,22.40
2019-02-16T01:35:10.846Z,25.25
2019-02-16T01:35:45.992Z,20.12
2019-02-16T01:36:19.513Z,21.20
2019-02-16T01:36:53.035Z,20.52
2019-02-16T01:37:26.530Z,24.57
2019-02-16T01:37:59.985Z,17.70
2019-02-16T01:38:33.496Z,18.92
2019-02-16T01:39:07.178Z,19.00
2019-02-16T01:39:41.716Z,15.32
2019-02-16T01:40:16.561Z,17.15
2019-02-16T01:40:50.129Z,17.75
2019-02-16T01:41:24.969Z,16.93
2019-02-16T01:41:59.808Z,17.60
2019-02-16T01:42:34.977Z,17.48
2019-02-16T01:43:10.891Z,18.27
2019-02-16T01:43:46.339Z,23.22
2019-02-16T01:44:19.957Z,25.68
2019-02-16T01:44:53.464Z,24.57
2019-02-16T01:45:27.010Z,25.43
2019-02-16T01:46:00.570Z,26.25
2019-02-16T01:46:34.083Z,21.45
2019-02-16T01:47:07.580Z,18.62
2019-02-16T01:47:41.006Z,21.37
2019-02-16T01:48:14.517Z,18.62
2019-02-16T01:48:54.457Z,22.40
2019-02-16T01:49:28.124Z,16.95
2019-02-16T01:50:01.636Z,17.50
2019-02-16T01:50:36.159Z,19.27
2019-02-16T01:51:09.853Z,18.10
2019-02-16T01:51:43.616Z,16.67
2019-02-16T01:52:19.351Z,15.35
2019-02-16T01:52:52.909Z,19.87
2019-02-16T01:53:27.765Z,13.88
2019-02-16T01:54:03.378Z,17.00
2019-02-16T01:54:38.379Z,17.90
2019-02-16T01:55:15.229Z,19.25
2019-02-16T01:55:50.966Z,18.40
2019-02-16T01:56:24.545Z,15.30
2019-02-16T01:56:58.058Z,15.93
2019-02-16T01:57:31.818Z,18.52
2019-02-16T01:58:06.993Z,18.17
2019-02-16T01:58:41.907Z,14.93
2019-02-16T01:59:16.716Z,17.82
2019-02-16T01:59:50.281Z,15.35
2019-02-16T02:00:25.658Z,16.42
2019-02-16T02:01:00.806Z,15.93
2019-02-16T02:01:36.068Z,14.25
2019-02-16T02:02:09.477Z,18.90
2019-02-16T02:02:42.907Z,15.55
2019-02-16T02:03:18.289Z,17.20
2019-02-16T02:03:55.647Z,18.02
2019-02-16T02:04:29.706Z,13.72
2019-02-16T02:05:03.365Z,16.42
2019-02-16T02:05:36.930Z,26.07
2019-02-16T02:06:10.442Z,13.05
2019-02-16T02:06:43.972Z,17.07
2019-02-16T02:07:18.151Z,17.15
2019-02-16T02:07:51.653Z,21.15
2019-02-16T02:08:25.227Z,11.83
2019-02-16T02:09:01.278Z,20.30
2019-02-16T02:09:37.472Z,18.02
2019-02-16T02:10:11.193Z,18.35
2019-02-16T02:10:47.320Z,23.18
2019-02-16T02:11:22.116Z,24.67
2019-02-16T02:11:55.599Z,22.07
2019-02-16T02:12:29.100Z,18.85
2019-02-16T02:13:03.550Z,15.03
2019-02-16T02:13:37.049Z,18.62
2019-02-16T02:14:11.906Z,18.40
2019-02-16T02:14:45.520Z,23.47
2019-02-16T02:15:20.104Z,20.57
2019-02-16T02:15:55.356Z,25.72
2019-02-16T02:16:28.962Z,27.80
2019-02-16T02:17:02.464Z,31.95
2019-02-16T02:17:37.197Z,24.87
2019-02-16T02:18:11.676Z,28.10
2019-02-16T02:18:45.259Z,26.45
2019-02-16T02:19:19.208Z,31.15
2019-02-16T02:19:52.755Z,35.45
2019-02-16T02:20:27.412Z,27.77
2019-02-16T02:21:00.941Z,34.58
2019-02-16T02:21:40.892Z,29.95
2019-02-16T02:22:09.778Z,29.77
2019-02-16T02:22:45.069Z,25.70
2019-02-16T02:23:18.634Z,26.40
2019-02-16T02:23:52.956Z,31.17
2019-02-16T02:24:28.038Z,37.08
2019-02-16T02:25:03.640Z,41.13
2019-02-16T02:25:37.755Z,32.38
2019-02-16T02:26:12.544Z,34.33
2019-02-16T02:26:46.305Z,32.13
2019-02-16T02:27:21.309Z,27.05
2019-02-16T02:27:58.506Z,22.87
2019-02-16T02:28:33.527Z,23.57
2019-02-16T02:29:08.991Z,23.57
2019-02-16T02:29:44.524Z,27.07
2019-02-16T02:30:19.826Z,19.73
2019-02-16T02:30:55.656Z,23.70
2019-02-16T02:31:29.169Z,20.43
2019-02-16T02:32:03.844Z,23.25
2019-02-16T02:32:40.027Z,19.60
2019-02-16T02:33:15.412Z,18.73
2019-02-16T02:33:53.710Z,16.32
2019-02-16T02:34:29.351Z,18.98
2019-02-16T02:35:02.790Z,16.67
2019-02-16T02:35:37.089Z,16.55
2019-02-16T02:36:11.838Z,15.93
2019-02-16T02:36:45.349Z,14.65
2019-02-16T02:37:19.118Z,16.80
2019-02-16T02:37:52.697Z,22.30
2019-02-16T02:38:28.408Z,14.58
2019-02-16T02:39:02.119Z,14.28
2019-02-16T02:39:35.656Z,21.90
2019-02-16T02:40:09.197Z,15.60
2019-02-16T02:40:44.468Z,13.75
2019-02-16T02:41:20.025Z,19.02
2019-02-16T02:41:55.670Z,14.23
2019-02-16T02:42:31.147Z,15.30
2019-02-16T02:43:07.220Z,14.87
2019-02-16T02:43:43.568Z,14.33
2019-02-16T02:44:18.477Z,17.12
2019-02-16T02:44:52.155Z,15.88
2019-02-16T02:45:26.823Z,17.62
2019-02-16T02:46:03.083Z,16.48
2019-02-16T02:46:39.032Z,17.57
2019-02-16T02:47:14.421Z,14.35
2019-02-16T02:47:49.741Z,20.75
2019-02-16T02:48:25.200Z,12.50
2019-02-16T02:49:01.041Z,14.33
2019-02-16T02:49:36.580Z,17.42
2019-02-16T02:50:12.823Z,16.12
2019-02-16T02:50:48.072Z,13.22
2019-02-16T02:51:23.903Z,15.72
2019-02-16T02:52:05.914Z,17.20
2019-02-16T02:52:41.337Z,13.35
2019-02-16T02:53:30.833Z,16.65
2019-02-16T02:54:00.029Z,18.15
2019-02-16T02:54:36.128Z,14.30
2019-02-16T02:55:11.633Z,12.23
2019-02-16T02:55:45.256Z,16.02
2019-02-16T02:56:21.574Z,16.02
2019-02-16T02:56:58.102Z,13.85
2019-02-16T02:57:36.604Z,17.75
2019-02-16T02:58:12.892Z,13.28
2019-02-16T02:58:48.217Z,14.93
2019-02-16T02:59:23.670Z,18.07
2019-02-16T02:59:58.464Z,16.30
2019-02-16T03:00:36.728Z,15.18
2019-02-16T03:01:12.075Z,15.75
2019-02-16T03:01:47.463Z,15.55
2019-02-16T03:02:23.569Z,13.58
2019-02-16T03:02:57.526Z,13.80
2019-02-16T03:03:33.063Z,18.23
2019-02-16T03:04:08.560Z,15.32
2019-02-16T03:04:44.082Z,13.90
2019-02-16T03:05:20.815Z,14.18
2019-02-16T03:05:55.015Z,13.62
2019-02-16T03:06:31.213Z,13.55
2019-02-16T03:07:07.531Z,12.73
2019-02-16T03:07:42.214Z,13.48
2019-02-16T03:08:17.092Z,12.00
2019-02-16T03:08:53.226Z,14.40
2019-02-16T03:09:28.776Z,13.05
2019-02-16T03:10:07.067Z,14.75
2019-02-16T03:10:41.887Z,13.13
2019-02-16T03:11:16.658Z,15.35
2019-02-16T03:11:53.728Z,12.05
2019-02-16T03:12:29.160Z,12.47
2019-02-16T03:13:05.071Z,15.18
2019-02-16T03:13:41.747Z,15.63
2019-02-16T03:14:16.223Z,16.10
2019-02-16T03:14:51.701Z,18.07
2019-02-16T03:15:27.191Z,14.83
2019-02-16T03:16:02.645Z,14.33
2019-02-16T03:16:37.390Z,13.48
2019-02-16T03:17:13.609Z,14.38
2019-02-16T03:17:48.856Z,16.30
2019-02-16T03:18:24.469Z,12.53
2019-02-16T03:19:01.150Z,20.17
2019-02-16T03:19:36.561Z,11.80
2019-02-16T03:20:12.057Z,16.07
2019-02-16T03:20:46.518Z,16.45
2019-02-16T03:21:22.262Z,13.60
2019-02-16T03:22:02.956Z,12.05
2019-02-16T03:22:53.951Z,14.23
2019-02-16T03:23:28.002Z,13.45
2019-02-16T03:24:03.382Z,14.68
2019-02-16T03:24:39.312Z,12.75
2019-02-16T03:25:12.851Z,13.13
2019-02-16T03:25:52.261Z,13.80
2019-02-16T03:26:41.810Z,15.88
2019-02-16T03:27:28.525Z,12.40
2019-02-16T03:28:22.717Z,13.93
2019-02-16T03:29:22.162Z,17.12
2019-02-16T03:30:00.671Z,15.90
2019-02-16T03:30:41.261Z,18.98
2019-02-16T03:31:32.760Z,13.48
2019-02-16T03:32:29.851Z,12.45
2019-02-16T03:33:29.758Z,13.85
2019-02-16T03:34:18.826Z,12.47
2019-02-16T03:34:59.182Z,13.18
2019-02-16T03:35:56.119Z,14.28
2019-02-16T03:36:38.670Z,13.88
2019-02-16T03:37:43.686Z,13.15
2019-02-16T03:38:33.682Z,10.72
2019-02-16T03:39:27.851Z,13.78
2019-02-16T03:40:01.611Z,12.47
2019-02-16T03:40:37.855Z,13.88
2019-02-16T03:41:12.016Z,14.38
2019-02-16T03:41:47.767Z,12.82
2019-02-16T03:42:21.307Z,13.93
2019-02-16T03:42:56.257Z,14.65
2019-02-16T03:43:30.284Z,12.63
2019-02-16T03:44:03.962Z,15.80
2019-02-16T03:44:39.610Z,14.65
2019-02-16T03:45:13.445Z,16.48
2019-02-16T03:45:50.412Z,15.90
2019-02-16T03:46:24.702Z,16.60
2019-02-16T03:46:59.552Z,13.60
2019-02-16T03:47:33.947Z,12.20
2019-02-16T03:48:08.841Z,14.68
2019-02-16T03:48:43.885Z,15.00
2019-02-16T03:49:19.917Z,16.12
2019-02-16T03:49:54.808Z,13.30
2019-02-16T03:50:30.461Z,13.83
2019-02-16T03:51:04.052Z,12.60
2019-02-16T03:51:39.802Z,15.25
2019-02-16T03:52:14.464Z,13.35
2019-02-16T03:52:48.184Z,13.13
2019-02-16T03:53:23.395Z,14.87
2019-02-16T03:54:52.877Z,14.30
2019-02-16T03:55:30.171Z,13.48
2019-02-16T03:56:03.752Z,14.85
2019-02-16T03:56:42.812Z,12.68
2019-02-16T03:57:17.789Z,14.78
2019-02-16T03:57:54.891Z,14.38
2019-02-16T03:58:29.819Z,13.18
2019-02-16T03:59:05.008Z,15.23
2019-02-16T03:59:39.806Z,12.78
2019-02-16T04:00:14.091Z,17.67
2019-02-16T04:00:48.885Z,11.83
2019-02-16T04:01:23.432Z,14.95
2019-02-16T04:01:58.105Z,13.13
2019-02-16T04:02:31.846Z,14.90
2019-02-16T04:03:05.624Z,17.10
2019-02-16T04:03:39.563Z,15.18
2019-02-16T04:04:13.200Z,11.78
2019-02-16T04:04:47.298Z,15.83
2019-02-16T04:05:20.806Z,18.70
2019-02-16T04:05:54.485Z,15.75
2019-02-16T04:06:27.916Z,16.40
2019-02-16T04:07:02.095Z,13.95
2019-02-16T04:07:35.863Z,16.57
2019-02-16T04:08:09.819Z,17.52
2019-02-16T04:08:43.513Z,18.48
2019-02-16T04:09:17.824Z,15.03
2019-02-16T04:09:51.679Z,16.27
2019-02-16T04:10:25.873Z,15.58
2019-02-16T04:10:59.590Z,17.90
2019-02-16T04:11:33.226Z,15.75
2019-02-16T04:12:06.942Z,20.00
2019-02-16T04:12:40.691Z,12.68
2019-02-16T04:13:14.641Z,18.60
2019-02-16T04:13:48.716Z,14.95
2019-02-16T04:14:22.548Z,14.25
2019-02-16T04:14:56.728Z,14.50
2019-02-16T04:15:30.679Z,16.65
2019-02-16T04:16:04.539Z,14.87
2019-02-16T04:16:38.591Z,19.07
2019-02-16T04:17:12.831Z,13.93
2019-02-16T04:17:46.599Z,16.45
2019-02-16T04:18:21.225Z,16.90
2019-02-16T04:18:55.346Z,16.75
2019-02-16T04:19:29.317Z,14.43
2019-02-16T04:20:04.601Z,16.90
2019-02-16T04:20:39.766Z,15.32
2019-02-16T04:21:14.648Z,14.55
2019-02-16T04:21:49.531Z,16.30
2019-02-16T04:22:24.900Z,13.65
2019-02-16T04:22:59.187Z,13.45
2019-02-16T04:23:33.111Z,13.75
2019-02-16T04:24:07.620Z,15.55
2019-02-16T04:24:42.492Z,13.40
2019-02-16T04:25:16.215Z,15.95
2019-02-16T04:25:50.274Z,10.82
2019-02-16T04:26:24.664Z,14.43
2019-02-16T04:27:00.012Z,18.95
2019-02-16T04:27:34.861Z,13.05
2019-02-16T04:28:09.346Z,12.63
2019-02-16T04:28:44.609Z,15.25
2019-02-16T04:29:18.758Z,13.78
2019-02-16T04:29:52.959Z,14.00
2019-02-16T04:30:28.621Z,12.18
2019-02-16T04:31:02.975Z,16.23
2019-02-16T04:31:37.921Z,15.88
2019-02-16T04:32:15.683Z,12.60
2019-02-16T04:32:50.730Z,14.78
2019-02-16T04:33:25.399Z,16.10
2019-02-16T04:34:00.054Z,12.82
2019-02-16T04:34:33.633Z,14.73
2019-02-16T04:35:08.635Z,15.85
2019-02-16T04:35:43.344Z,15.48
2019-02-16T04:36:18.585Z,12.40
2019-02-16T04:36:52.511Z,13.35
2019-02-16T04:37:26.586Z,16.17
2019-02-16T04:38:00.891Z,13.65
2019-02-16T04:38:35.331Z,17.02
2019-02-16T04:39:09.384Z,14.07
2019-02-16T04:39:43.464Z,12.07
2019-02-16T04:40:18.097Z,15.32
2019-02-16T04:40:52.668Z,11.93
2019-02-16T04:41:26.939Z,13.80
2019-02-16T04:42:01.423Z,12.50
2019-02-16T04:42:35.893Z,13.93
2019-02-16T04:43:09.618Z,13.40
2019-02-16T04:43:44.745Z,12.50
2019-02-16T04:44:18.736Z,14.70
2019-02-16T04:44:52.917Z,12.00
2019-02-16T04:45:27.204Z,15.08
2019-02-16T04:46:01.388Z,10.93
2019-02-16T04:46:35.136Z,11.95
2019-02-16T04:47:09.164Z,13.88
2019-02-16T04:47:42.918Z,14.05
2019-02-16T04:48:16.817Z,13.32
2019-02-16T04:48:50.312Z,12.88
2019-02-16T04:49:23.843Z,12.90
2019-02-16T04:49:57.458Z,12.75
2019-02-16T04:50:31.443Z,12.13
2019-02-16T04:51:05.940Z,12.63
2019-02-16T04:51:39.933Z,12.05
2019-02-16T04:52:13.710Z,16.75
2019-02-16T04:52:47.533Z,13.25
2019-02-16T04:53:40.589Z,15.05
2019-02-16T04:54:17.497Z,16.55
2019-02-16T04:54:51.053Z,12.95
2019-02-16T04:55:25.179Z,13.93
2019-02-16T04:55:58.978Z,13.53
2019-02-16T04:56:32.564Z,13.83
2019-02-16T04:57:06.617Z,11.73
2019-02-16T04:57:40.461Z,11.73
2019-02-16T04:58:14.262Z,17.73
2019-02-16T04:58:48.291Z,17.40
2019-02-16T04:59:22.157Z,13.28
2019-02-16T04:59:56.102Z,12.63
2019-02-16T05:00:30.320Z,14.25
2019-02-16T05:01:03.827Z,14.13
2019-02-16T05:01:37.657Z,16.80
2019-02-16T05:02:11.596Z,15.80
2019-02-16T05:02:45.298Z,12.90
2019-02-16T05:03:18.996Z,18.48
2019-02-16T05:03:52.683Z,13.30
2019-02-16T05:04:26.329Z,15.63
2019-02-16T05:05:00.138Z,14.87
2019-02-16T05:05:34.019Z,17.98
2019-02-16T05:06:07.729Z,19.27
2019-02-16T05:06:41.338Z,14.80
2019-02-16T05:07:15.236Z,13.68
2019-02-16T05:07:49.310Z,18.10
2019-02-16T05:08:23.442Z,14.93
2019-02-16T05:08:57.641Z,14.33
2019-02-16T05:09:31.433Z,16.70
2019-02-16T05:10:06.038Z,13.35
2019-02-16T05:10:40.968Z,14.85
2019-02-16T05:11:14.834Z,11.30
2019-02-16T05:11:48.675Z,15.10
2019-02-16T05:12:22.563Z,12.82
2019-02-16T05:12:56.083Z,12.68
2019-02-16T05:13:29.686Z,16.48
2019-02-16T05:14:03.201Z,16.07
2019-02-16T05:14:36.784Z,12.10
2019-02-16T05:15:10.274Z,11.93
2019-02-16T05:15:43.744Z,14.50
2019-02-16T05:16:17.226Z,11.95
2019-02-16T05:16:50.627Z,14.60
2019-02-16T05:17:24.093Z,11.75
2019-02-16T05:17:57.612Z,15.63
2019-02-16T05:18:31.285Z,11.00
2019-02-16T05:19:04.896Z,10.25
2019-02-16T05:19:38.650Z,10.45
2019-02-16T05:20:12.073Z,10.60
2019-02-16T05:20:45.564Z,11.75
2019-02-16T05:21:19.098Z,10.50
2019-02-16T05:21:52.645Z,12.37
2019-02-16T05:22:26.322Z,13.93
2019-02-16T05:22:59.991Z,11.35
2019-02-16T05:23:33.509Z,12.07
2019-02-16T05:24:07.048Z,14.70
2019-02-16T05:24:40.629Z,12.18
2019-02-16T05:25:14.250Z,14.85
2019-02-16T05:25:47.853Z,11.73
2019-02-16T05:26:22.004Z,13.83
2019-02-16T05:26:56.259Z,11.45
2019-02-16T05:27:30.290Z,14.95
2019-02-16T05:28:03.891Z,13.15
2019-02-16T05:28:37.728Z,15.15
2019-02-16T05:29:11.931Z,11.83
2019-02-16T05:29:46.786Z,14.68
2019-02-16T05:30:20.413Z,12.05
2019-02-16T05:30:54.196Z,10.70
2019-02-16T05:31:28.375Z,14.40
2019-02-16T05:32:02.792Z,12.80
2019-02-16T05:32:36.613Z,11.65
2019-02-16T05:33:10.916Z,14.60
2019-02-16T05:33:44.820Z,15.68
2019-02-16T05:34:18.677Z,12.80
2019-02-16T05:34:52.634Z,19.35
2019-02-16T05:35:26.312Z,14.07
2019-02-16T05:36:00.383Z,15.05
2019-02-16T05:36:33.892Z,15.90
2019-02-16T05:37:07.544Z,15.65
2019-02-16T05:37:41.424Z,16.40
2019-02-16T05:38:15.475Z,16.23
2019-02-16T05:38:49.380Z,15.23
2019-02-16T05:39:23.354Z,22.32
2019-02-16T05:39:57.374Z,19.80
2019-02-16T05:40:31.231Z,13.75
2019-02-16T05:41:05.715Z,15.45
2019-02-16T05:41:39.607Z,18.65
2019-02-16T05:42:13.568Z,17.62
2019-02-16T05:42:47.322Z,18.12
2019-02-16T05:43:21.197Z,24.45
2019-02-16T05:43:55.016Z,19.75
2019-02-16T05:44:28.989Z,19.55
2019-02-16T05:45:03.526Z,17.98
2019-02-16T05:45:37.517Z,21.82
2019-02-16T05:46:11.470Z,18.92
2019-02-16T05:46:46.090Z,16.40
2019-02-16T05:47:20.357Z,13.95
2019-02-16T05:47:54.153Z,16.87
2019-02-16T05:48:28.766Z,15.85
2019-02-16T05:49:02.866Z,18.37
2019-02-16T05:49:36.710Z,14.85
2019-02-16T05:50:10.706Z,26.62
2019-02-16T05:50:44.292Z,13.13
2019-02-16T05:51:18.498Z,15.85
2019-02-16T05:51:53.394Z,14.85
2019-02-16T05:52:27.321Z,15.58
2019-02-16T05:53:01.360Z,11.95
2019-02-16T05:53:35.249Z,17.90
2019-02-16T05:54:09.068Z,16.97
2019-02-16T05:54:42.744Z,18.73
2019-02-16T05:55:16.582Z,15.13
2019-02-16T05:55:50.579Z,17.55
2019-02-16T05:56:24.428Z,17.52
2019-02-16T05:56:58.109Z,13.50
2019-02-16T05:57:32.182Z,14.03
2019-02-16T05:58:05.908Z,12.03
2019-02-16T05:58:39.713Z,15.00
2019-02-16T05:59:13.861Z,12.78
2019-02-16T05:59:47.575Z,16.67
2019-02-16T06:00:24.492Z,16.37
2019-02-16T06:00:58.222Z,20.60
2019-02-16T06:01:31.882Z,19.25
2019-02-16T06:02:06.003Z,16.15
2019-02-16T06:02:39.994Z,15.28
2019-02-16T06:03:13.764Z,16.57
2019-02-16T06:03:47.661Z,17.20
2019-02-16T06:04:21.278Z,12.65
2019-02-16T06:04:55.241Z,11.75
2019-02-16T06:05:29.024Z,13.13
2019-02-16T06:06:02.954Z,14.63
2019-02-16T06:06:36.642Z,18.00
2019-02-16T06:07:10.569Z,15.55
2019-02-16T06:07:44.358Z,16.35
2019-02-16T06:08:18.297Z,15.40
2019-02-16T06:08:52.423Z,11.97
2019-02-16T06:09:26.109Z,15.23
2019-02-16T06:10:54.996Z,12.98
2019-02-16T06:11:28.572Z,12.20
2019-02-16T06:12:02.484Z,13.55
2019-02-16T06:12:36.356Z,14.78
2019-02-16T06:13:10.673Z,14.87
2019-02-16T06:13:45.016Z,14.68
2019-02-16T06:14:19.101Z,14.73
2019-02-16T06:14:52.980Z,16.00
2019-02-16T06:15:27.252Z,13.62
2019-02-16T06:16:02.029Z,14.18
2019-02-16T06:16:36.154Z,10.75
2019-02-16T06:17:10.047Z,17.57
2019-02-16T06:17:43.783Z,13.22
2019-02-16T06:18:17.982Z,12.03
2019-02-16T06:18:51.825Z,15.08
2019-02-16T06:19:25.840Z,15.53
2019-02-16T06:19:59.475Z,11.48
2019-02-16T06:20:33.211Z,13.62
2019-02-16T06:21:06.786Z,14.35
2019-02-16T06:21:40.412Z,10.88
2019-02-16T06:22:15.965Z,12.03
2019-02-16T06:22:50.085Z,14.15
2019-02-16T06:23:23.750Z,14.23
2019-02-16T06:23:57.845Z,11.22
2019-02-16T06:24:32.045Z,12.80
2019-02-16T06:25:06.027Z,13.48
2019-02-16T06:25:39.905Z,10.90
2019-02-16T06:26:14.014Z,12.53
2019-02-16T06:26:47.521Z,16.35
2019-02-16T06:27:21.278Z,12.63
2019-02-16T06:27:54.931Z,12.93
2019-02-16T06:28:28.731Z,11.45
2019-02-16T06:29:02.705Z,10.72
2019-02-16T06:29:36.229Z,11.53
2019-02-16T06:30:09.738Z,10.05
2019-02-16T06:30:43.405Z,19.05
2019-02-16T06:31:17.601Z,11.85
2019-02-16T06:31:51.254Z,14.30
2019-02-16T06:32:24.947Z,12.55
2019-02-16T06:32:58.896Z,14.68
2019-02-16T06:33:32.493Z,14.23
2019-02-16T06:34:06.195Z,14.20
2019-02-16T06:34:40.134Z,13.70
2019-02-16T06:35:27.953Z,14.70
2019-02-16T06:36:06.433Z,13.72
2019-02-16T06:36:41.889Z,13.22
2019-02-16T06:37:22.564Z,13.22
2019-02-16T06:37:56.332Z,11.75
2019-02-16T06:38:30.326Z,13.08
2019-02-16T06:39:05.583Z,12.90
2019-02-16T06:39:39.396Z,10.35
2019-02-16T06:40:12.855Z,18.73
2019-02-16T06:40:46.502Z,15.00
2019-02-16T06:41:20.045Z,12.63
2019-02-16T06:41:53.734Z,14.70
2019-02-16T06:42:27.393Z,12.85
2019-02-16T06:43:01.143Z,14.33
2019-02-16T06:43:34.792Z,11.60
2019-02-16T06:44:08.232Z,13.83
2019-02-16T06:44:41.739Z,12.45
2019-02-16T06:45:15.436Z,17.40
2019-02-16T06:45:49.105Z,15.10
2019-02-16T06:46:22.604Z,18.25
2019-02-16T06:46:56.128Z,14.03
2019-02-16T06:47:29.641Z,13.05
2019-02-16T06:48:03.188Z,12.50
2019-02-16T06:48:36.789Z,11.63
2019-02-16T06:49:10.332Z,17.98
2019-02-16T06:49:43.819Z,12.63
2019-02-16T06:50:17.414Z,15.10
2019-02-16T06:50:50.943Z,13.95
2019-02-16T06:51:24.466Z,12.40
2019-02-16T06:51:58.064Z,18.35
2019-02-16T06:52:31.519Z,15.30
2019-02-16T06:53:12.931Z,13.83
2019-02-16T06:53:40.338Z,12.68
2019-02-16T06:54:13.938Z,15.43
2019-02-16T06:54:47.457Z,19.02
2019-02-16T06:55:20.954Z,18.77
2019-02-16T06:56:16.532Z,18.85
2019-02-16T06:57:49.062Z,16.55
2019-02-16T06:58:22.605Z,16.40
2019-02-16T06:58:56.114Z,15.58
2019-02-16T06:59:29.633Z,16.07
2019-02-16T07:00:03.487Z,16.12
2019-02-16T07:00:36.995Z,20.80
2019-02-16T07:01:10.489Z,20.08
2019-02-16T07:01:44.088Z,21.55
2019-02-16T07:02:17.677Z,25.05
2019-02-16T07:02:51.152Z,24.92
2019-02-16T07:03:24.593Z,18.70
2019-02-16T07:03:58.087Z,14.43
2019-02-16T07:04:31.675Z,20.72
2019-02-16T07:05:05.353Z,16.05
2019-02-16T07:05:38.856Z,16.87
2019-02-16T07:06:12.483Z,20.57
2019-02-16T07:06:46.022Z,13.10
2019-02-16T07:07:19.753Z,19.10
2019-02-16T07:07:53.182Z,22.02
2019-02-16T07:08:26.803Z,20.62
2019-02-16T07:09:00.403Z,24.57
2019-02-16T07:09:33.986Z,15.00
2019-02-16T07:10:08.090Z,16.35
2019-02-16T07:10:41.625Z,18.07
2019-02-16T07:11:15.343Z,16.10
2019-02-16T07:11:48.889Z,16.42
2019-02-16T07:12:22.413Z,17.27
2019-02-16T07:12:56.040Z,14.53
2019-02-16T07:13:29.483Z,15.88
2019-02-16T07:14:03.525Z,12.80
2019-02-16T07:14:41.784Z,16.30
2019-02-16T07:15:17.387Z,15.20
2019-02-16T07:16:09.111Z,15.20
2019-02-16T07:16:50.732Z,16.27
2019-02-16T07:17:42.212Z,20.35
2019-02-16T07:18:21.294Z,12.25
2019-02-16T07:18:59.789Z,13.20
2019-02-16T07:19:36.683Z,11.88
2019-02-16T07:20:10.976Z,12.95
2019-02-16T07:20:44.502Z,13.22
2019-02-16T07:21:18.148Z,13.22
2019-02-16T07:21:52.076Z,11.63
2019-02-16T07:22:25.730Z,14.63
2019-02-16T07:22:59.748Z,16.45
2019-02-16T07:23:33.286Z,15.05
2019-02-16T07:24:07.069Z,14.78
2019-02-16T07:24:44.638Z,14.33
2019-02-16T07:25:19.104Z,8.88
2019-02-16T07:25:53.393Z,13.18
2019-02-16T07:26:27.123Z,13.98
2019-02-16T07:27:00.722Z,17.57
2019-02-16T07:27:34.624Z,11.57
2019-02-16T07:28:09.328Z,10.45
2019-02-16T07:28:43.421Z,13.50
2019-02-16T07:29:17.616Z,11.75
2019-02-16T07:29:51.146Z,12.63
2019-02-16T07:30:24.766Z,11.95
2019-02-16T07:30:58.400Z,15.63
2019-02-16T07:31:32.263Z,19.98
2019-02-16T07:32:06.017Z,17.57
2019-02-16T07:32:40.024Z,12.90
2019-02-16T07:33:13.975Z,14.10